sensor_id;sensor_type;location;lat;lon;timestamp;pressure;altitude;pressure_sealevel;temperature;humidity
10606;BME280;5350;42.698;23.148;2023-04-20T00:01:40;93318.66;;;10.16;99.63
10606;BME280;5350;42.698;23.148;2023-04-20T00:04:08;93317.78;;;10.07;99.40
10606;BME280;5350;42.698;23.148;2023-04-20T00:06:35;93316.59;;;10.00;99.86
10606;BME280;5350;42.698;23.148;2023-04-20T00:09:02;93292.47;;;9.84;100.00
10606;BME280;5350;42.698;23.148;2023-04-20T00:11:30;93307.84;;;10.04;100.00
10606;BME280;5350;42.698;23.148;2023-04-20T00:13:56;93310.16;;;10.06;100.00
10606;BME280;5350;42.698;23.148;2023-04-20T00:16:23;93306.09;;;10.00;100.00
10606;BME280;5350;42.698;23.148;2023-04-20T00:18:50;93300.84;;;9.86;100.00
10606;BME280;5350;42.698;23.148;2023-04-20T00:21:18;93301.03;;;9.90;100.00
10606;BME280;5350;42.698;23.148;2023-04-20T00:23:48;93304.91;;;9.79;100.00
10606;BME280;5350;42.698;23.148;2023-04-20T00:26:15;93304.16;;;9.78;100.00
10606;BME280;5350;42.698;23.148;2023-04-20T00:28:42;93303.47;;;9.86;100.00
10606;BME280;5350;42.698;23.148;2023-04-20T00:31:09;93303.97;;;9.88;100.00
10606;BME280;5350;42.698;23.148;2023-04-20T00:33:35;93300.72;;;9.91;100.00
10606;BME280;5350;42.698;23.148;2023-04-20T00:36:02;93291.31;;;9.90;100.00
10606;BME280;5350;42.698;23.148;2023-04-20T00:38:31;93291.41;;;9.99;100.00
10606;BME280;5350;42.698;23.148;2023-04-20T00:40:57;93297.72;;;9.98;100.00
10606;BME280;5350;42.698;23.148;2023-04-20T00:43:24;93295.97;;;9.93;100.00
10606;BME280;5350;42.698;23.148;2023-04-20T00:45:51;93301.44;;;9.97;100.00
10606;BME280;5350;42.698;23.148;2023-04-20T00:48:18;93298.81;;;9.97;100.00
10606;BME280;5350;42.698;23.148;2023-04-20T00:50:45;93279.44;;;9.79;100.00
10606;BME280;5350;42.698;23.148;2023-04-20T00:53:12;93300.06;;;9.86;100.00
10606;BME280;5350;42.698;23.148;2023-04-20T00:55:42;93298.41;;;9.76;100.00
10606;BME280;5350;42.698;23.148;2023-04-20T00:58:09;93295.47;;;9.78;100.00
10606;BME280;5350;42.698;23.148;2023-04-20T01:00:37;93296.53;;;9.77;100.00
10606;BME280;5350;42.698;23.148;2023-04-20T01:03:05;93290.03;;;9.74;100.00
10606;BME280;5350;42.698;23.148;2023-04-20T01:05:32;93291.50;;;9.80;100.00
10606;BME280;5350;42.698;23.148;2023-04-20T01:07:59;93292.06;;;9.77;100.00
10606;BME280;5350;42.698;23.148;2023-04-20T01:10:26;93289.63;;;9.67;100.00
10606;BME280;5350;42.698;23.148;2023-04-20T01:12:54;93290.13;;;9.69;100.00
10606;BME280;5350;42.698;23.148;2023-04-20T01:15:20;93293.63;;;9.78;100.00
10606;BME280;5350;42.698;23.148;2023-04-20T01:17:47;93292.25;;;9.67;100.00
10606;BME280;5350;42.698;23.148;2023-04-20T01:20:14;93288.09;;;9.80;100.00
10606;BME280;5350;42.698;23.148;2023-04-20T01:22:46;93288.47;;;9.87;100.00
10606;BME280;5350;42.698;23.148;2023-04-20T01:25:13;93291.09;;;9.73;100.00
10606;BME280;5350;42.698;23.148;2023-04-20T01:27:40;93281.16;;;9.70;100.00
10606;BME280;5350;42.698;23.148;2023-04-20T01:30:08;93273.69;;;9.63;100.00
10606;BME280;5350;42.698;23.148;2023-04-20T01:32:35;93277.66;;;9.75;100.00
10606;BME280;5350;42.698;23.148;2023-04-20T01:35:02;93282.53;;;9.81;100.00
10606;BME280;5350;42.698;23.148;2023-04-20T01:37:29;93273.28;;;9.70;100.00
10606;BME280;5350;42.698;23.148;2023-04-20T01:39:57;93264.34;;;9.71;100.00
10606;BME280;5350;42.698;23.148;2023-04-20T01:42:24;93261.91;;;9.75;100.00
10606;BME280;5350;42.698;23.148;2023-04-20T01:44:51;93268.91;;;9.79;100.00
10606;BME280;5350;42.698;23.148;2023-04-20T01:47:17;93273.31;;;9.84;100.00
10606;BME280;5350;42.698;23.148;2023-04-20T01:49:44;93276.31;;;9.77;100.00
10606;BME280;5350;42.698;23.148;2023-04-20T01:52:11;93268.91;;;9.52;100.00
10606;BME280;5350;42.698;23.148;2023-04-20T01:54:37;93261.69;;;9.44;100.00
10606;BME280;5350;42.698;23.148;2023-04-20T01:57:06;93264.44;;;9.52;100.00
10606;BME280;5350;42.698;23.148;2023-04-20T01:59:32;93264.03;;;9.45;100.00
10606;BME280;5350;42.698;23.148;2023-04-20T02:01:59;93259.56;;;9.46;100.00
10606;BME280;5350;42.698;23.148;2023-04-20T02:04:26;93260.81;;;9.35;100.00
10606;BME280;5350;42.698;23.148;2023-04-20T02:06:53;93258.94;;;9.22;100.00
10606;BME280;5350;42.698;23.148;2023-04-20T02:09:19;93251.66;;;9.19;100.00
10606;BME280;5350;42.698;23.148;2023-04-20T02:11:46;93254.56;;;9.31;100.00
10606;BME280;5350;42.698;23.148;2023-04-20T02:14:14;93253.91;;;9.39;100.00
10606;BME280;5350;42.698;23.148;2023-04-20T02:16:41;93261.28;;;9.37;100.00
10606;BME280;5350;42.698;23.148;2023-04-20T02:19:08;93242.25;;;9.31;100.00
10606;BME280;5350;42.698;23.148;2023-04-20T02:21:35;93240.47;;;9.27;100.00
10606;BME280;5350;42.698;23.148;2023-04-20T02:24:02;93260.13;;;9.43;100.00
10606;BME280;5350;42.698;23.148;2023-04-20T02:26:29;93259.16;;;9.39;99.91
10606;BME280;5350;42.698;23.148;2023-04-20T02:28:56;93257.97;;;9.31;99.89
10606;BME280;5350;42.698;23.148;2023-04-20T02:31:24;93263.34;;;9.40;99.42
10606;BME280;5350;42.698;23.148;2023-04-20T02:33:51;93234.81;;;9.06;99.98
10606;BME280;5350;42.698;23.148;2023-04-20T02:36:17;93262.84;;;9.38;100.00
10606;BME280;5350;42.698;23.148;2023-04-20T02:38:44;93267.94;;;9.48;99.58
10606;BME280;5350;42.698;23.148;2023-04-20T02:41:11;93254.88;;;9.43;100.00
10606;BME280;5350;42.698;23.148;2023-04-20T02:43:37;93264.13;;;9.54;99.40
10606;BME280;5350;42.698;23.148;2023-04-20T02:46:04;93264.06;;;9.59;99.85
10606;BME280;5350;42.698;23.148;2023-04-20T02:48:33;93273.47;;;9.60;100.00
10606;BME280;5350;42.698;23.148;2023-04-20T02:51:00;93256.97;;;9.59;99.20
10606;BME280;5350;42.698;23.148;2023-04-20T02:53:26;93255.59;;;9.62;99.39
10606;BME280;5350;42.698;23.148;2023-04-20T02:55:53;93262.28;;;9.68;99.74
10606;BME280;5350;42.698;23.148;2023-04-20T02:58:20;93261.03;;;9.79;99.19
10606;BME280;5350;42.698;23.148;2023-04-20T03:00:46;93259.19;;;9.80;99.02
10606;BME280;5350;42.698;23.148;2023-04-20T03:03:13;93252.38;;;9.92;97.92
10606;BME280;5350;42.698;23.148;2023-04-20T03:05:42;93255.22;;;9.82;98.47
10606;BME280;5350;42.698;23.148;2023-04-20T03:08:09;93253.06;;;9.84;98.55
10606;BME280;5350;42.698;23.148;2023-04-20T03:10:35;93257.63;;;9.92;100.00
10606;BME280;5350;42.698;23.148;2023-04-20T03:13:02;93253.34;;;9.83;100.00
10606;BME280;5350;42.698;23.148;2023-04-20T03:15:29;93259.38;;;9.83;100.00
10606;BME280;5350;42.698;23.148;2023-04-20T03:17:56;93263.88;;;9.69;100.00
10606;BME280;5350;42.698;23.148;2023-04-20T03:20:22;93257.53;;;9.70;100.00
10606;BME280;5350;42.698;23.148;2023-04-20T03:22:50;93269.03;;;9.74;100.00
10606;BME280;5350;42.698;23.148;2023-04-20T03:25:17;93242.19;;;9.63;100.00
10606;BME280;5350;42.698;23.148;2023-04-20T03:27:44;93259.69;;;9.82;100.00
10606;BME280;5350;42.698;23.148;2023-04-20T03:30:12;93258.53;;;9.74;100.00
10606;BME280;5350;42.698;23.148;2023-04-20T03:32:40;93264.84;;;9.73;100.00
10606;BME280;5350;42.698;23.148;2023-04-20T03:35:07;93260.84;;;9.76;99.38
10606;BME280;5350;42.698;23.148;2023-04-20T03:37:35;93263.38;;;9.67;99.66
10606;BME280;5350;42.698;23.148;2023-04-20T03:40:04;93235.03;;;9.37;99.28
10606;BME280;5350;42.698;23.148;2023-04-20T03:42:32;93261.31;;;9.64;98.54
10606;BME280;5350;42.698;23.148;2023-04-20T03:44:59;93263.66;;;9.52;98.60
10606;BME280;5350;42.698;23.148;2023-04-20T03:47:26;93271.16;;;9.45;99.53
10606;BME280;5350;42.698;23.148;2023-04-20T03:49:52;93270.75;;;9.38;99.99
10606;BME280;5350;42.698;23.148;2023-04-20T03:52:19;93262.06;;;9.24;100.00
10606;BME280;5350;42.698;23.148;2023-04-20T03:54:46;93221.97;;;9.05;99.54
10606;BME280;5350;42.698;23.148;2023-04-20T03:57:14;93265.00;;;9.36;99.88
10606;BME280;5350;42.698;23.148;2023-04-20T03:59:41;93261.28;;;9.37;99.83
10606;BME280;5350;42.698;23.148;2023-04-20T04:02:07;93247.47;;;9.18;100.00
10606;BME280;5350;42.698;23.148;2023-04-20T04:04:37;93272.19;;;9.44;99.39
10606;BME280;5350;42.698;23.148;2023-04-20T04:07:04;93272.69;;;9.46;99.32
10606;BME280;5350;42.698;23.148;2023-04-20T04:09:31;93274.16;;;9.38;98.64
10606;BME280;5350;42.698;23.148;2023-04-20T04:11:58;93275.50;;;9.36;99.81
10606;BME280;5350;42.698;23.148;2023-04-20T04:14:27;93285.31;;;9.44;98.82
10606;BME280;5350;42.698;23.148;2023-04-20T04:16:54;93286.19;;;9.39;99.69
10606;BME280;5350;42.698;23.148;2023-04-20T04:19:21;93276.28;;;9.36;100.00
10606;BME280;5350;42.698;23.148;2023-04-20T04:21:48;93277.94;;;9.46;99.99
10606;BME280;5350;42.698;23.148;2023-04-20T04:24:15;93284.09;;;9.55;98.97
10606;BME280;5350;42.698;23.148;2023-04-20T04:26:42;93285.16;;;9.54;99.41
10606;BME280;5350;42.698;23.148;2023-04-20T04:29:10;93270.84;;;9.46;99.90
10606;BME280;5350;42.698;23.148;2023-04-20T04:31:38;93283.50;;;9.58;100.00
10606;BME280;5350;42.698;23.148;2023-04-20T04:34:04;93271.16;;;9.45;99.86
10606;BME280;5350;42.698;23.148;2023-04-20T04:36:31;93288.97;;;9.61;100.00
10606;BME280;5350;42.698;23.148;2023-04-20T04:38:58;93292.94;;;9.73;99.92
10606;BME280;5350;42.698;23.148;2023-04-20T04:41:25;93283.03;;;9.70;99.54
10606;BME280;5350;42.698;23.148;2023-04-20T04:43:51;93289.34;;;9.82;98.87
10606;BME280;5350;42.698;23.148;2023-04-20T04:46:18;93297.31;;;9.77;97.80
10606;BME280;5350;42.698;23.148;2023-04-20T04:48:47;93293.81;;;9.82;98.60
10606;BME280;5350;42.698;23.148;2023-04-20T04:51:14;93296.56;;;9.90;97.81
10606;BME280;5350;42.698;23.148;2023-04-20T04:53:40;93300.91;;;9.81;97.69
10606;BME280;5350;42.698;23.148;2023-04-20T04:56:09;93293.63;;;9.78;99.37
10606;BME280;5350;42.698;23.148;2023-04-20T04:58:36;93299.28;;;9.85;98.19
10606;BME280;5350;42.698;23.148;2023-04-20T05:01:03;93298.69;;;9.88;98.71
10606;BME280;5350;42.698;23.148;2023-04-20T05:03:29;93301.22;;;9.80;99.45
10606;BME280;5350;42.698;23.148;2023-04-20T05:05:57;93301.19;;;9.66;99.81
10606;BME280;5350;42.698;23.148;2023-04-20T05:08:24;93301.59;;;9.73;99.01
10606;BME280;5350;42.698;23.148;2023-04-20T05:10:51;93304.31;;;9.68;100.00
10606;BME280;5350;42.698;23.148;2023-04-20T05:13:18;93305.59;;;9.71;99.49
10606;BME280;5350;42.698;23.148;2023-04-20T05:15:44;93308.81;;;9.68;100.00
10606;BME280;5350;42.698;23.148;2023-04-20T05:18:11;93303.38;;;9.78;100.00
10606;BME280;5350;42.698;23.148;2023-04-20T05:20:38;93309.41;;;9.78;99.89
10606;BME280;5350;42.698;23.148;2023-04-20T05:23:06;93312.59;;;9.75;100.00
10606;BME280;5350;42.698;23.148;2023-04-20T05:25:33;93312.09;;;9.73;100.00
10606;BME280;5350;42.698;23.148;2023-04-20T05:28:00;93270.25;;;9.49;99.98
10606;BME280;5350;42.698;23.148;2023-04-20T05:30:26;93312.09;;;9.73;100.00
10606;BME280;5350;42.698;23.148;2023-04-20T05:32:53;93312.03;;;9.78;100.00
10606;BME280;5350;42.698;23.148;2023-04-20T05:35:20;93319.50;;;9.71;100.00
10606;BME280;5350;42.698;23.148;2023-04-20T05:37:47;93309.47;;;9.73;100.00
10606;BME280;5350;42.698;23.148;2023-04-20T05:40:15;93318.34;;;9.63;100.00
10606;BME280;5350;42.698;23.148;2023-04-20T05:42:41;93311.44;;;9.68;100.00
10606;BME280;5350;42.698;23.148;2023-04-20T05:45:10;93317.63;;;9.58;100.00
10606;BME280;5350;42.698;23.148;2023-04-20T05:47:37;93316.00;;;9.76;100.00
10606;BME280;5350;42.698;23.148;2023-04-20T05:50:04;93313.09;;;9.77;100.00
10606;BME280;5350;42.698;23.148;2023-04-20T05:52:31;93315.03;;;9.72;100.00
10606;BME280;5350;42.698;23.148;2023-04-20T05:54:58;93315.72;;;9.77;100.00
10606;BME280;5350;42.698;23.148;2023-04-20T05:57:26;93314.53;;;9.83;100.00
10606;BME280;5350;42.698;23.148;2023-04-20T05:59:53;93320.69;;;9.92;100.00
10606;BME280;5350;42.698;23.148;2023-04-20T06:02:20;93320.69;;;9.92;100.00
10606;BME280;5350;42.698;23.148;2023-04-20T06:04:47;93320.78;;;9.87;100.00
10606;BME280;5350;42.698;23.148;2023-04-20T06:07:14;93324.00;;;9.84;100.00
10606;BME280;5350;42.698;23.148;2023-04-20T06:09:41;93324.25;;;9.83;100.00
10606;BME280;5350;42.698;23.148;2023-04-20T06:12:07;93324.88;;;9.80;100.00
10606;BME280;5350;42.698;23.148;2023-04-20T06:14:36;93326.25;;;9.91;100.00
10606;BME280;5350;42.698;23.148;2023-04-20T06:17:02;93324.56;;;9.81;100.00
10606;BME280;5350;42.698;23.148;2023-04-20T06:19:29;93318.34;;;9.91;100.00
10606;BME280;5350;42.698;23.148;2023-04-20T06:21:56;93329.66;;;10.05;100.00
10606;BME280;5350;42.698;23.148;2023-04-20T06:24:23;93318.53;;;9.94;100.00
10606;BME280;5350;42.698;23.148;2023-04-20T06:26:50;93323.41;;;10.01;100.00
10606;BME280;5350;42.698;23.148;2023-04-20T06:29:16;93326.72;;;9.93;100.00
10606;BME280;5350;42.698;23.148;2023-04-20T06:31:45;93325.94;;;9.92;100.00
10606;BME280;5350;42.698;23.148;2023-04-20T06:34:11;93326.72;;;9.93;100.00
10606;BME280;5350;42.698;23.148;2023-04-20T06:36:41;93326.31;;;9.99;100.00
10606;BME280;5350;42.698;23.148;2023-04-20T06:39:08;93324.19;;;10.01;100.00
10606;BME280;5350;42.698;23.148;2023-04-20T06:41:36;93334.41;;;9.89;100.00
10606;BME280;5350;42.698;23.148;2023-04-20T06:44:02;93329.06;;;9.94;100.00
10606;BME280;5350;42.698;23.148;2023-04-20T06:46:29;93338.47;;;9.95;100.00
10606;BME280;5350;42.698;23.148;2023-04-20T06:48:57;93333.25;;;10.09;100.00
10606;BME280;5350;42.698;23.148;2023-04-20T06:51:24;93343.09;;;10.17;100.00
10606;BME280;5350;42.698;23.148;2023-04-20T06:53:53;93337.66;;;10.13;100.00
10606;BME280;5350;42.698;23.148;2023-04-20T06:56:20;93335.88;;;10.09;100.00
10606;BME280;5350;42.698;23.148;2023-04-20T06:58:47;93346.34;;;9.95;100.00
10606;BME280;5350;42.698;23.148;2023-04-20T07:01:13;93340.34;;;9.95;100.00
10606;BME280;5350;42.698;23.148;2023-04-20T07:03:40;93345.69;;;9.90;100.00
10606;BME280;5350;42.698;23.148;2023-04-20T07:06:09;93345.38;;;9.78;100.00
10606;BME280;5350;42.698;23.148;2023-04-20T07:08:36;93345.09;;;9.79;100.00
10606;BME280;5350;42.698;23.148;2023-04-20T07:11:04;93351.50;;;9.87;100.00
10606;BME280;5350;42.698;23.148;2023-04-20T07:13:31;93345.28;;;9.83;100.00
10606;BME280;5350;42.698;23.148;2023-04-20T07:15:58;93346.19;;;9.78;100.00
10606;BME280;5350;42.698;23.148;2023-04-20T07:18:24;93347.81;;;9.74;100.00
10606;BME280;5350;42.698;23.148;2023-04-20T07:20:51;93349.38;;;9.75;100.00
10606;BME280;5350;42.698;23.148;2023-04-20T07:23:19;93353.38;;;9.86;100.00
10606;BME280;5350;42.698;23.148;2023-04-20T07:25:46;93362.34;;;9.99;100.00
10606;BME280;5350;42.698;23.148;2023-04-20T07:28:13;93341.03;;;10.00;100.00
10606;BME280;5350;42.698;23.148;2023-04-20T07:30:40;93360.41;;;9.91;100.00
10606;BME280;5350;42.698;23.148;2023-04-20T07:33:06;93358.63;;;10.00;100.00
10606;BME280;5350;42.698;23.148;2023-04-20T07:35:35;93359.81;;;10.07;100.00
10606;BME280;5350;42.698;23.148;2023-04-20T07:38:02;93352.94;;;10.11;100.00
10606;BME280;5350;42.698;23.148;2023-04-20T07:40:30;93357.31;;;10.29;100.00
10606;BME280;5350;42.698;23.148;2023-04-20T07:42:57;93357.31;;;10.29;100.00
10606;BME280;5350;42.698;23.148;2023-04-20T07:45:24;93361.50;;;10.30;100.00
10606;BME280;5350;42.698;23.148;2023-04-20T07:47:50;93361.00;;;10.42;100.00
10606;BME280;5350;42.698;23.148;2023-04-20T07:50:19;93359.44;;;10.41;100.00
10606;BME280;5350;42.698;23.148;2023-04-20T07:52:46;93356.06;;;10.40;100.00
10606;BME280;5350;42.698;23.148;2023-04-20T07:55:13;93351.47;;;10.32;100.00
10606;BME280;5350;42.698;23.148;2023-04-20T07:57:43;93365.19;;;10.43;100.00
10606;BME280;5350;42.698;23.148;2023-04-20T08:00:10;93362.16;;;10.63;100.00
10606;BME280;5350;42.698;23.148;2023-04-20T08:02:38;93356.59;;;10.65;100.00
10606;BME280;5350;42.698;23.148;2023-04-20T08:05:05;93360.53;;;10.89;100.00
10606;BME280;5350;42.698;23.148;2023-04-20T08:07:32;93362.28;;;10.94;100.00
10606;BME280;5350;42.698;23.148;2023-04-20T08:09:59;93360.50;;;11.03;100.00
10606;BME280;5350;42.698;23.148;2023-04-20T08:12:27;93361.22;;;11.17;100.00
10606;BME280;5350;42.698;23.148;2023-04-20T08:14:55;93355.41;;;11.28;100.00
10606;BME280;5350;42.698;23.148;2023-04-20T08:17:24;93365.31;;;11.45;100.00
10606;BME280;5350;42.698;23.148;2023-04-20T08:19:51;93361.69;;;11.41;97.65
10606;BME280;5350;42.698;23.148;2023-04-20T08:22:18;93370.69;;;11.40;97.73
10606;BME280;5350;42.698;23.148;2023-04-20T08:24:45;93369.97;;;11.48;97.50
10606;BME280;5350;42.698;23.148;2023-04-20T08:27:12;93362.91;;;11.57;98.65
10606;BME280;5350;42.698;23.148;2023-04-20T08:29:38;93374.19;;;11.71;96.57
10606;BME280;5350;42.698;23.148;2023-04-20T08:32:06;93338.47;;;11.43;96.94
10606;BME280;5350;42.698;23.148;2023-04-20T08:34:34;93366.59;;;11.70;96.61
10606;BME280;5350;42.698;23.148;2023-04-20T08:37:00;93362.78;;;11.40;96.69
10606;BME280;5350;42.698;23.148;2023-04-20T08:39:27;93366.38;;;11.44;96.44
10606;BME280;5350;42.698;23.148;2023-04-20T08:41:54;93369.59;;;11.41;97.99
10606;BME280;5350;42.698;23.148;2023-04-20T08:44:21;93371.41;;;11.54;98.15
10606;BME280;5350;42.698;23.148;2023-04-20T08:46:49;93369.03;;;11.66;96.00
10606;BME280;5350;42.698;23.148;2023-04-20T08:49:18;93361.78;;;11.72;96.29
10606;BME280;5350;42.698;23.148;2023-04-20T08:51:46;93366.63;;;11.78;95.77
10606;BME280;5350;42.698;23.148;2023-04-20T08:54:13;93339.31;;;11.52;96.09
10606;BME280;5350;42.698;23.148;2023-04-20T08:56:42;93361.38;;;11.78;96.37
10606;BME280;5350;42.698;23.148;2023-04-20T08:59:09;93379.06;;;11.86;96.21
10606;BME280;5350;42.698;23.148;2023-04-20T09:01:37;93368.53;;;11.86;94.08
10606;BME280;5350;42.698;23.148;2023-04-20T09:04:14;93346.56;;;11.69;93.62
10606;BME280;5350;42.698;23.148;2023-04-20T09:06:44;93373.34;;;11.84;93.93
10606;BME280;5350;42.698;23.148;2023-04-20T09:09:11;93373.03;;;11.86;93.47
10606;BME280;5350;42.698;23.148;2023-04-20T09:11:37;93375.59;;;11.77;92.35
10606;BME280;5350;42.698;23.148;2023-04-20T09:14:06;93369.75;;;11.80;95.36
10606;BME280;5350;42.698;23.148;2023-04-20T09:16:35;93371.03;;;11.91;93.75
10606;BME280;5350;42.698;23.148;2023-04-20T09:19:01;93368.88;;;11.93;90.73
10606;BME280;5350;42.698;23.148;2023-04-20T09:21:28;93369.06;;;11.97;90.93
10606;BME280;5350;42.698;23.148;2023-04-20T09:23:58;93359.94;;;12.03;90.10
10606;BME280;5350;42.698;23.148;2023-04-20T09:26:25;93362.00;;;12.15;89.51
10606;BME280;5350;42.698;23.148;2023-04-20T09:28:52;93365.16;;;12.34;86.86
10606;BME280;5350;42.698;23.148;2023-04-20T09:31:20;93353.41;;;12.48;86.79
10606;BME280;5350;42.698;23.148;2023-04-20T09:33:58;93356.44;;;12.64;88.73
10606;BME280;5350;42.698;23.148;2023-04-20T09:36:34;93348.47;;;12.55;87.09
10606;BME280;5350;42.698;23.148;2023-04-20T09:39:08;93352.09;;;12.85;87.44
10606;BME280;5350;42.698;23.148;2023-04-20T09:41:35;93355.22;;;12.96;84.67
10606;BME280;5350;42.698;23.148;2023-04-20T09:44:03;93350.69;;;12.88;83.89
10606;BME280;5350;42.698;23.148;2023-04-20T09:46:31;93359.09;;;12.98;82.54
10606;BME280;5350;42.698;23.148;2023-04-20T09:48:58;93349.78;;;13.01;83.31
10606;BME280;5350;42.698;23.148;2023-04-20T09:51:26;93354.28;;;13.00;83.15
10606;BME280;5350;42.698;23.148;2023-04-20T09:53:57;93352.31;;;13.23;81.49
10606;BME280;5350;42.698;23.148;2023-04-20T09:56:25;93348.25;;;13.42;81.41
10606;BME280;5350;42.698;23.148;2023-04-20T09:58:52;93341.09;;;13.60;80.52
10606;BME280;5350;42.698;23.148;2023-04-20T10:01:20;93360.97;;;13.75;77.89
10606;BME280;5350;42.698;23.148;2023-04-20T10:03:48;93353.28;;;13.99;78.42
10606;BME280;5350;42.698;23.148;2023-04-20T10:06:19;93352.50;;;13.98;76.16
10606;BME280;5350;42.698;23.148;2023-04-20T10:08:46;93343.00;;;14.06;76.50
10606;BME280;5350;42.698;23.148;2023-04-20T10:11:25;93344.84;;;14.14;75.44
10606;BME280;5350;42.698;23.148;2023-04-20T10:13:52;93344.84;;;14.14;73.98
10606;BME280;5350;42.698;23.148;2023-04-20T10:16:19;93334.88;;;14.11;73.92
10606;BME280;5350;42.698;23.148;2023-04-20T10:18:55;93327.44;;;14.04;75.49
10606;BME280;5350;42.698;23.148;2023-04-20T10:21:22;93337.94;;;14.21;75.11
10606;BME280;5350;42.698;23.148;2023-04-20T10:23:50;93316.00;;;13.83;75.71
10606;BME280;5350;42.698;23.148;2023-04-20T10:26:17;93337.56;;;14.02;77.24
10606;BME280;5350;42.698;23.148;2023-04-20T10:28:46;93335.22;;;14.09;74.05
10606;BME280;5350;42.698;23.148;2023-04-20T10:31:13;93336.63;;;13.98;75.44
10606;BME280;5350;42.698;23.148;2023-04-20T10:33:54;93338.19;;;13.99;75.14
10606;BME280;5350;42.698;23.148;2023-04-20T10:36:22;93332.59;;;14.01;74.07
10606;BME280;5350;42.698;23.148;2023-04-20T10:38:50;93337.41;;;13.99;75.30
10606;BME280;5350;42.698;23.148;2023-04-20T10:41:17;93329.44;;;14.16;76.66
10606;BME280;5350;42.698;23.148;2023-04-20T10:43:45;93345.72;;;14.26;74.83
10606;BME280;5350;42.698;23.148;2023-04-20T10:46:13;93339.25;;;14.07;75.20
10606;BME280;5350;42.698;23.148;2023-04-20T10:48:48;93345.38;;;13.90;73.82
10606;BME280;5350;42.698;23.148;2023-04-20T10:51:16;93337.75;;;13.89;75.71
10606;BME280;5350;42.698;23.148;2023-04-20T10:53:43;93347.06;;;13.95;73.13
10606;BME280;5350;42.698;23.148;2023-04-20T10:56:09;93336.78;;;14.02;74.67
10606;BME280;5350;42.698;23.148;2023-04-20T10:58:36;93342.84;;;14.02;73.64
10606;BME280;5350;42.698;23.148;2023-04-20T11:01:06;93339.69;;;14.17;72.05
10606;BME280;5350;42.698;23.148;2023-04-20T11:03:33;93296.63;;;14.08;69.26
10606;BME280;5350;42.698;23.148;2023-04-20T11:06:00;93347.50;;;14.52;68.36
10606;BME280;5350;42.698;23.148;2023-04-20T11:08:37;93314.16;;;14.59;68.99
10606;BME280;5350;42.698;23.148;2023-04-20T11:11:05;93324.59;;;14.85;66.90
10606;BME280;5350;42.698;23.148;2023-04-20T11:13:42;93323.09;;;14.96;67.51
10606;BME280;5350;42.698;23.148;2023-04-20T11:16:12;93325.44;;;14.97;67.38
10606;BME280;5350;42.698;23.148;2023-04-20T11:18:47;93325.78;;;14.87;67.15
10606;BME280;5350;42.698;23.148;2023-04-20T11:21:15;93327.63;;;14.95;67.50
10606;BME280;5350;42.698;23.148;2023-04-20T11:23:42;93320.81;;;14.86;66.11
10606;BME280;5350;42.698;23.148;2023-04-20T11:26:09;93322.97;;;14.92;66.57
10606;BME280;5350;42.698;23.148;2023-04-20T11:28:36;93316.38;;;14.98;65.84
10606;BME280;5350;42.698;23.148;2023-04-20T11:31:03;93311.75;;;14.95;66.03
10606;BME280;5350;42.698;23.148;2023-04-20T11:33:31;93307.28;;;15.08;65.46
10606;BME280;5350;42.698;23.148;2023-04-20T11:35:58;93311.59;;;15.12;63.68
10606;BME280;5350;42.698;23.148;2023-04-20T11:38:27;93307.72;;;15.31;63.28
10606;BME280;5350;42.698;23.148;2023-04-20T11:40:54;93311.72;;;15.37;61.56
10606;BME280;5350;42.698;23.148;2023-04-20T11:43:21;93306.41;;;15.37;61.55
10606;BME280;5350;42.698;23.148;2023-04-20T11:45:48;93307.31;;;15.41;60.35
10606;BME280;5350;42.698;23.148;2023-04-20T11:48:15;93298.56;;;15.61;61.05
10606;BME280;5350;42.698;23.148;2023-04-20T11:50:44;93298.72;;;15.76;58.54
10606;BME280;5350;42.698;23.148;2023-04-20T11:53:10;93301.47;;;15.68;58.74
10606;BME280;5350;42.698;23.148;2023-04-20T11:55:39;93295.78;;;15.57;60.23
10606;BME280;5350;42.698;23.148;2023-04-20T11:58:06;93298.38;;;15.66;59.35
10606;BME280;5350;42.698;23.148;2023-04-20T12:00:33;93298.25;;;15.62;60.01
10606;BME280;5350;42.698;23.148;2023-04-20T12:02:59;93301.47;;;15.68;61.84
10606;BME280;5350;42.698;23.148;2023-04-20T12:05:27;93293.59;;;15.59;61.20
10606;BME280;5350;42.698;23.148;2023-04-20T12:07:55;93277.94;;;15.13;61.43
10606;BME280;5350;42.698;23.148;2023-04-20T12:10:22;93305.31;;;15.17;61.43
10606;BME280;5350;42.698;23.148;2023-04-20T12:12:48;93295.31;;;15.02;62.41
10606;BME280;5350;42.698;23.148;2023-04-20T12:15:15;93293.66;;;14.97;61.28
10606;BME280;5350;42.698;23.148;2023-04-20T12:17:42;93283.50;;;14.79;61.73
10606;BME280;5350;42.698;23.148;2023-04-20T12:20:09;93293.38;;;14.90;62.03
10606;BME280;5350;42.698;23.148;2023-04-20T12:22:37;93303.69;;;14.83;59.95
10606;BME280;5350;42.698;23.148;2023-04-20T12:25:06;93291.56;;;14.82;61.22
10606;BME280;5350;42.698;23.148;2023-04-20T12:27:33;93287.91;;;14.95;60.88
10606;BME280;5350;42.698;23.148;2023-04-20T12:29:59;93285.09;;;15.12;60.70
10606;BME280;5350;42.698;23.148;2023-04-20T12:32:26;93278.91;;;15.08;61.15
10606;BME280;5350;42.698;23.148;2023-04-20T12:34:53;93281.84;;;15.28;60.98
10606;BME280;5350;42.698;23.148;2023-04-20T12:37:20;93277.44;;;15.32;60.00
10606;BME280;5350;42.698;23.148;2023-04-20T12:39:46;93269.06;;;15.30;61.29
10606;BME280;5350;42.698;23.148;2023-04-20T12:42:14;93267.16;;;15.51;60.99
10606;BME280;5350;42.698;23.148;2023-04-20T12:44:41;93262.13;;;15.70;60.63
10606;BME280;5350;42.698;23.148;2023-04-20T12:47:08;93258.22;;;16.12;59.01
10606;BME280;5350;42.698;23.148;2023-04-20T12:49:34;93268.38;;;16.70;56.39
10606;BME280;5350;42.698;23.148;2023-04-20T12:52:01;93253.25;;;16.99;55.29
10606;BME280;5350;42.698;23.148;2023-04-20T12:54:28;93256.03;;;17.58;54.12
10606;BME280;5350;42.698;23.148;2023-04-20T12:56:54;93239.19;;;17.97;49.29
10606;BME280;5350;42.698;23.148;2023-04-20T12:59:23;93235.75;;;18.12;48.48
10606;BME280;5350;42.698;23.148;2023-04-20T13:01:49;93236.00;;;18.22;46.66